createdAt,value
2023-09-13T00:04:15.183Z,101619.53
2023-09-13T00:09:18.350Z,101592.84
2023-09-13T00:14:21.480Z,101615.97
2023-09-13T00:19:24.413Z,101582.44
2023-09-13T00:24:27.352Z,101606.69
2023-09-13T00:29:33.159Z,101611.09
2023-09-13T00:34:35.876Z,101600.69
2023-09-13T00:39:39.552Z,101606.41
2023-09-13T00:44:42.378Z,101623.50
2023-09-13T00:49:46.727Z,101604.53
2023-09-13T00:54:49.960Z,101623.22
2023-09-13T00:59:53.538Z,101602.56
2023-09-13T01:04:56.518Z,101612.69
2023-09-13T01:21:10.469Z,101605.88
2023-09-13T01:26:22.187Z,101623.66
2023-09-13T01:31:26.344Z,101616.06
2023-09-13T01:36:29.922Z,101622.88
2023-09-13T01:41:38.828Z,101612.22
2023-09-13T01:46:44.806Z,101629.66
2023-09-13T01:51:48.566Z,101627.06
2023-09-13T01:56:51.608Z,101632.56
2023-09-13T02:01:54.761Z,101633.28
2023-09-13T02:06:57.710Z,101625.88
2023-09-13T02:12:00.646Z,101635.50
2023-09-13T02:17:03.980Z,101636.47
2023-09-13T02:22:26.845Z,101642.69
2023-09-13T02:27:30.726Z,101634.44
2023-09-13T02:32:33.666Z,101629.63
2023-09-13T02:37:36.995Z,101625.94
2023-09-13T02:42:39.948Z,101627.06
2023-09-13T02:47:43.461Z,101656.16
2023-09-13T02:52:46.171Z,101631.59
2023-09-13T02:57:49.159Z,101639.22
2023-09-13T03:02:52.741Z,101651.75
2023-09-13T03:07:58.432Z,101668.44
2023-09-13T03:13:01.420Z,101662.00
2023-09-13T03:18:04.764Z,101653.16
2023-09-13T03:23:07.783Z,101667.59
2023-09-13T03:28:11.019Z,101666.06
2023-09-13T03:33:14.527Z,101661.41
2023-09-13T03:38:17.468Z,101660.47
2023-09-13T03:43:20.404Z,101673.19
2023-09-13T03:48:23.590Z,101652.13
2023-09-13T03:53:27.290Z,101670.81
2023-09-13T03:58:31.226Z,101646.44
2023-09-13T04:03:34.272Z,101670.06
2023-09-13T04:08:37.277Z,101660.00
2023-09-13T04:13:40.403Z,101652.22
2023-09-13T04:18:43.537Z,101645.88
2023-09-13T04:23:46.910Z,101669.28
2023-09-13T04:28:49.976Z,101659.19
2023-09-13T04:33:55.583Z,101669.50
2023-09-13T04:39:06.477Z,101681.84
2023-09-13T04:44:09.544Z,101691.81
2023-09-13T04:49:14.111Z,101689.97
2023-09-13T04:54:17.018Z,101692.44
2023-09-13T04:59:20.352Z,101697.53
2023-09-13T05:04:24.462Z,101683.75
2023-09-13T05:09:27.544Z,101691.06
2023-09-13T05:14:30.429Z,101711.72
2023-09-13T05:19:33.231Z,101701.28
2023-09-13T05:24:36.317Z,101692.09
2023-09-13T05:29:39.364Z,101719.84
2023-09-13T05:34:46.004Z,101728.50
2023-09-13T05:39:55.150Z,101715.19
2023-09-13T05:44:58.109Z,101732.66
2023-09-13T05:50:01.624Z,101736.84
2023-09-13T05:55:06.893Z,101738.78
2023-09-13T06:00:11.076Z,101731.75
2023-09-13T06:05:16.907Z,101706.69
2023-09-13T06:10:19.932Z,101731.41
2023-09-13T06:15:23.187Z,101747.34
2023-09-13T06:20:28.248Z,101759.44
2023-09-13T06:25:31.256Z,101748.88
2023-09-13T06:30:34.157Z,101738.72
2023-09-13T06:35:38.904Z,101732.66
2023-09-13T06:40:46.034Z,101740.47
2023-09-13T06:46:03.468Z,101767.31
2023-09-13T06:56:14.422Z,101758.78
2023-09-13T07:01:42.669Z,101765.44
2023-09-13T07:06:43.543Z,101766.19
2023-09-13T07:11:46.430Z,101737.41
2023-09-13T07:16:50.149Z,101764.59
2023-09-13T07:21:53.088Z,101747.69
2023-09-13T07:26:58.971Z,101736.47
2023-09-13T07:32:04.161Z,101753.34
2023-09-13T07:37:07.164Z,101754.09
2023-09-13T07:42:10.574Z,101748.59
2023-09-13T07:47:13.885Z,101744.31
2023-09-13T07:52:16.736Z,101731.63
2023-09-13T07:58:02.382Z,101747.13
2023-09-13T08:03:06.098Z,101738.53
2023-09-13T08:08:10.803Z,101746.34
2023-09-13T08:13:13.656Z,101747.22
2023-09-13T08:18:16.733Z,101736.69
2023-09-13T08:23:19.583Z,101731.25
2023-09-13T08:28:22.427Z,101707.44
2023-09-13T08:33:25.300Z,101711.41
2023-09-13T08:38:28.206Z,101746.72
2023-09-13T08:43:33.776Z,101731.88
2023-09-13T08:48:38.778Z,101737.88
2023-09-13T08:53:42.678Z,101722.75
2023-09-13T08:58:46.091Z,101726.72
2023-09-13T09:03:50.356Z,101731.66
2023-09-13T09:08:54.872Z,101738.25
2023-09-13T09:14:00.463Z,101711.25
2023-09-13T09:19:06.287Z,101742.72
2023-09-13T09:24:09.084Z,101716.81
2023-09-13T09:29:16.585Z,101714.59
2023-09-13T09:34:19.562Z,101723.34
2023-09-13T09:39:23.607Z,101695.94
2023-09-13T09:44:30.355Z,101698.81
2023-09-13T09:49:33.463Z,101716.75
2023-09-13T09:54:38.497Z,101723.06
2023-09-13T09:59:41.520Z,101705.53
2023-09-13T10:04:52.814Z,101709.06
2023-09-13T10:09:57.012Z,101710.63
2023-09-13T10:15:05.533Z,101718.19
2023-09-13T10:20:10.243Z,101699.41
2023-09-13T10:25:17.466Z,101715.25
2023-09-13T10:30:26.356Z,101710.81
2023-09-13T10:35:34.087Z,101724.88
2023-09-13T10:40:45.458Z,101731.84
2023-09-13T10:45:49.200Z,101738.69
2023-09-13T10:50:55.648Z,101742.00
2023-09-13T10:55:58.861Z,101738.09
2023-09-13T11:01:02.036Z,101752.22
2023-09-13T11:06:05.547Z,101757.00
2023-09-13T11:11:19.579Z,101750.53
2023-09-13T11:16:24.992Z,101744.53
2023-09-13T11:21:56.210Z,101755.88
2023-09-13T11:27:31.094Z,101728.66
2023-09-13T11:32:34.537Z,101724.75
2023-09-13T11:37:37.823Z,101703.03
2023-09-13T11:42:58.600Z,101708.38
2023-09-13T11:48:07.066Z,101688.50
2023-09-13T11:53:20.642Z,101701.13
2023-09-13T11:58:50.901Z,101709.41
2023-09-13T12:09:18.646Z,101707.47
2023-09-13T12:14:39.390Z,101681.69
2023-09-13T12:19:48.923Z,101710.22
2023-09-13T12:25:00.309Z,101704.38
2023-09-13T12:30:07.891Z,101696.91
2023-09-13T12:35:11.467Z,101728.09
2023-09-13T12:40:17.892Z,101728.75
2023-09-13T12:45:21.231Z,101735.06
2023-09-13T12:55:51.567Z,101740.88
2023-09-13T13:00:58.145Z,101735.38
2023-09-13T13:06:03.463Z,101740.91
2023-09-13T13:11:07.743Z,101729.38
2023-09-13T13:16:32.538Z,101731.81
2023-09-13T13:21:43.113Z,101720.50
2023-09-13T13:26:46.035Z,101735.75
2023-09-13T13:31:49.069Z,101750.97
2023-09-13T13:36:54.965Z,101742.91
2023-09-13T13:41:59.913Z,101745.97
2023-09-13T13:47:22.082Z,101731.00
2023-09-13T13:52:24.900Z,101734.34
2023-09-13T13:57:27.839Z,101748.94
2023-09-13T14:02:37.796Z,101762.22
2023-09-13T14:07:40.763Z,101722.03
2023-09-13T14:12:43.846Z,101750.53
2023-09-13T14:17:46.694Z,101756.03
2023-09-13T14:22:49.409Z,101748.78
2023-09-13T14:28:08.958Z,101748.53
2023-09-13T14:33:18.146Z,101727.69
2023-09-13T14:38:22.136Z,101733.50
2023-09-13T14:43:24.955Z,101743.44
2023-09-13T14:48:27.723Z,101723.97
2023-09-13T14:53:49.362Z,101735.75
2023-09-13T14:58:52.307Z,101741.97
2023-09-13T15:03:55.401Z,101753.53
2023-09-13T15:08:59.549Z,101742.63
2023-09-13T15:14:02.276Z,101745.34
2023-09-13T15:19:05.117Z,101763.34
2023-09-13T15:24:08.188Z,101738.19
2023-09-13T15:29:11.013Z,101752.00
2023-09-13T15:34:13.788Z,101757.09
2023-09-13T15:39:18.033Z,101765.50
2023-09-13T15:44:20.661Z,101780.97
2023-09-13T15:49:27.265Z,101780.19
2023-09-13T15:54:30.119Z,101781.59
2023-09-13T15:59:33.933Z,101790.38
2023-09-13T16:04:36.898Z,101775.38
2023-09-13T16:09:39.875Z,101781.03
2023-09-13T16:14:42.882Z,101800.31
2023-09-13T16:19:45.799Z,101794.69
2023-09-13T16:24:48.478Z,101796.84
2023-09-13T16:29:51.193Z,101780.31
2023-09-13T16:34:54.343Z,101788.41
2023-09-13T16:39:59.968Z,101800.53
2023-09-13T16:45:03.478Z,101803.53
2023-09-13T16:50:08.659Z,101798.78
2023-09-13T16:55:11.453Z,101815.56
2023-09-13T17:00:14.540Z,101826.31
2023-09-13T17:05:17.495Z,101833.75
2023-09-13T17:10:20.471Z,101829.88
2023-09-13T17:15:23.710Z,101822.16
2023-09-13T17:20:33.312Z,101828.13
2023-09-13T17:25:37.178Z,101840.81
2023-09-13T17:30:40.210Z,101829.69
2023-09-13T17:35:43.321Z,101832.13
2023-09-13T17:40:47.871Z,101837.84
2023-09-13T17:45:51.979Z,101842.53
2023-09-13T17:50:55.844Z,101838.47
2023-09-13T17:55:59.256Z,101843.00
2023-09-13T18:01:02.005Z,101823.25
2023-09-13T18:06:05.004Z,101835.38
2023-09-13T18:11:08.062Z,101841.97
2023-09-13T18:16:20.765Z,101802.44
2023-09-13T18:21:24.244Z,101834.75
2023-09-13T18:26:26.958Z,101806.50
2023-09-13T18:31:29.838Z,101807.50
2023-09-13T18:36:32.671Z,101821.97
2023-09-13T18:41:35.896Z,101822.28
2023-09-13T18:46:38.953Z,101826.13
2023-09-13T18:51:43.564Z,101817.19
2023-09-13T18:56:48.715Z,101837.53
2023-09-13T19:01:51.816Z,101829.41
2023-09-13T19:07:08.464Z,101827.25
2023-09-13T19:12:12.984Z,101832.88
2023-09-13T19:17:15.837Z,101812.44
2023-09-13T19:22:18.566Z,101822.84
2023-09-13T19:27:21.776Z,101837.53
2023-09-13T19:32:24.814Z,101838.59
2023-09-13T19:37:27.999Z,101821.16
2023-09-13T19:42:31.547Z,101820.81
2023-09-13T19:47:34.586Z,101825.94
2023-09-13T19:52:37.334Z,101818.03
2023-09-13T19:57:40.190Z,101822.53
2023-09-13T20:02:43.222Z,101817.19
2023-09-13T20:07:46.243Z,101840.97
2023-09-13T20:12:48.968Z,101834.91
2023-09-13T20:17:52.080Z,101835.22
2023-09-13T20:22:55.839Z,101834.50
2023-09-13T20:27:59.283Z,101835.28
2023-09-13T20:33:03.829Z,101852.13
2023-09-13T20:38:08.580Z,101835.38
2023-09-13T20:43:12.065Z,101826.63
2023-09-13T20:48:15.336Z,101811.75
2023-09-13T20:53:18.122Z,101825.78
2023-09-13T20:58:21.261Z,101846.91
2023-09-13T21:03:24.810Z,101840.09
2023-09-13T21:08:27.697Z,101819.06
2023-09-13T21:13:30.318Z,101822.19
2023-09-13T21:18:33.270Z,101831.44
2023-09-13T21:23:36.081Z,101816.41
2023-09-13T21:28:40.698Z,101840.53
2023-09-13T21:33:45.997Z,101852.38
2023-09-13T21:38:49.646Z,101845.03
2023-09-13T21:43:52.336Z,101846.38
2023-09-13T21:48:55.293Z,101851.53
2023-09-13T21:53:58.153Z,101831.94
2023-09-13T21:59:01.069Z,101841.41
2023-09-13T22:04:04.400Z,101838.44
2023-09-13T22:09:07.433Z,101841.50
2023-09-13T22:14:10.469Z,101855.50
2023-09-13T22:19:13.548Z,101828.41
2023-09-13T22:24:16.477Z,101844.34
2023-09-13T22:29:19.311Z,101842.22
2023-09-13T22:34:22.087Z,101843.38
2023-09-13T22:39:25.321Z,101831.22
2023-09-13T22:44:28.389Z,101831.69
2023-09-13T22:49:32.379Z,101832.50
2023-09-13T22:54:35.412Z,101818.41
2023-09-13T22:59:38.301Z,101838.16
2023-09-13T23:04:43.542Z,101811.31
2023-09-13T23:09:46.729Z,101831.63
2023-09-13T23:14:49.719Z,101827.63
2023-09-13T23:19:52.391Z,101854.09
2023-09-13T23:24:55.219Z,101841.03
2023-09-13T23:29:58.214Z,101809.50
2023-09-13T23:35:01.081Z,101850.47
2023-09-13T23:40:07.449Z,101809.66
2023-09-13T23:45:10.862Z,101850.75
2023-09-13T23:50:13.769Z,101827.56
2023-09-13T23:55:16.794Z,101836.50
